createdAt,value
2023-05-05T00:01:33.290Z,15.90
2023-05-05T00:04:00.417Z,15.90
2023-05-05T00:06:28.753Z,15.80
2023-05-05T00:08:56.303Z,15.80
2023-05-05T00:11:23.456Z,15.80
2023-05-05T00:13:51.568Z,15.70
2023-05-05T00:16:18.831Z,15.70
2023-05-05T00:18:45.809Z,15.70
2023-05-05T00:21:13.068Z,15.60
2023-05-05T00:23:40.038Z,15.60
2023-05-05T00:26:06.972Z,15.50
2023-05-05T00:28:33.991Z,15.50
2023-05-05T00:31:01.738Z,15.50
2023-05-05T00:33:28.842Z,15.40
2023-05-05T00:35:55.839Z,15.40
2023-05-05T00:38:23.440Z,15.30
2023-05-05T00:40:50.441Z,15.30
2023-05-05T00:43:17.505Z,15.30
2023-05-05T00:45:47.838Z,15.30
2023-05-05T00:48:17.087Z,15.20
2023-05-05T00:50:45.139Z,15.20
2023-05-05T00:53:12.689Z,15.20
2023-05-05T00:55:40.554Z,15.10
2023-05-05T00:58:08.062Z,15.10
2023-05-05T01:00:35.202Z,15.10
2023-05-05T01:03:02.272Z,15.10
2023-05-05T01:05:41.781Z,15.00
2023-05-05T01:08:28.682Z,15.00
2023-05-05T01:11:03.265Z,15.00
2023-05-05T01:14:16.993Z,15.00
2023-05-05T01:16:58.347Z,15.00
2023-05-05T01:20:02.840Z,14.90
2023-05-05T01:22:39.316Z,14.90
2023-05-05T01:25:23.269Z,14.80
2023-05-05T01:27:53.629Z,14.80
2023-05-05T01:31:09.188Z,14.80
2023-05-05T01:33:47.952Z,14.70
2023-05-05T01:36:24.428Z,14.70
2023-05-05T01:38:58.206Z,14.70
2023-05-05T01:41:39.262Z,14.60
2023-05-05T01:44:16.340Z,14.60
2023-05-05T01:46:43.348Z,14.60
2023-05-05T01:49:12.982Z,14.60
2023-05-05T01:51:41.194Z,14.60
2023-05-05T01:54:09.675Z,14.60
2023-05-05T01:56:40.289Z,14.60
2023-05-05T01:59:07.978Z,14.60
2023-05-05T02:01:39.297Z,14.60
2023-05-05T02:04:09.960Z,14.60
2023-05-05T02:06:39.501Z,14.60
2023-05-05T02:09:08.563Z,14.60
2023-05-05T02:11:36.095Z,14.60
2023-05-05T02:14:05.076Z,14.60
2023-05-05T02:16:33.265Z,14.70
2023-05-05T02:19:05.251Z,14.70
2023-05-05T02:21:33.990Z,14.60
2023-05-05T02:24:01.397Z,14.60
2023-05-05T02:26:30.351Z,14.50
2023-05-05T02:29:05.720Z,14.50
2023-05-05T02:31:39.054Z,14.50
2023-05-05T02:34:07.509Z,14.50
2023-05-05T02:36:41.595Z,14.40
2023-05-05T02:39:19.885Z,14.50
2023-05-05T02:41:49.667Z,14.40
2023-05-05T02:44:18.381Z,14.30
2023-05-05T02:46:49.381Z,14.40
2023-05-05T02:49:16.466Z,14.30
2023-05-05T02:51:43.495Z,14.30
2023-05-05T02:54:11.038Z,14.30
2023-05-05T02:56:46.520Z,14.30
2023-05-05T02:59:15.346Z,14.30
2023-05-05T03:02:05.418Z,14.20
2023-05-05T03:04:40.006Z,14.20
2023-05-05T03:07:14.432Z,14.20
2023-05-05T03:09:57.732Z,14.10
2023-05-05T03:12:30.947Z,14.10
2023-05-05T03:15:00.935Z,14.10
2023-05-05T03:17:29.477Z,14.10
2023-05-05T03:19:57.308Z,14.10
2023-05-05T03:22:24.695Z,14.00
2023-05-05T03:24:52.231Z,14.10
2023-05-05T03:27:20.508Z,14.10
2023-05-05T03:29:47.536Z,14.10
2023-05-05T03:32:14.541Z,14.10
2023-05-05T03:34:41.554Z,14.10
2023-05-05T03:37:08.494Z,14.10
2023-05-05T03:39:35.442Z,14.10
2023-05-05T03:42:02.447Z,14.20
2023-05-05T03:44:29.373Z,14.10
2023-05-05T03:46:56.310Z,14.10
2023-05-05T03:49:24.309Z,14.10
2023-05-05T03:51:51.478Z,14.10
2023-05-05T03:54:18.705Z,14.10
2023-05-05T03:56:45.686Z,14.00
2023-05-05T03:59:12.661Z,14.00
2023-05-05T04:01:39.639Z,14.00
2023-05-05T04:04:06.661Z,14.00
2023-05-05T04:06:33.682Z,14.00
2023-05-05T04:09:00.968Z,14.00
2023-05-05T04:11:27.962Z,14.00
2023-05-05T04:13:54.952Z,14.00
2023-05-05T04:16:21.971Z,14.00
2023-05-05T04:18:48.952Z,14.00
2023-05-05T04:21:15.868Z,14.00
2023-05-05T04:23:42.805Z,14.10
2023-05-05T04:26:09.779Z,14.10
2023-05-05T04:28:36.736Z,14.20
2023-05-05T04:31:05.283Z,14.20
2023-05-05T04:33:32.315Z,14.20
2023-05-05T04:35:59.277Z,14.20
2023-05-05T04:38:26.578Z,14.20
2023-05-05T04:40:53.506Z,14.30
2023-05-05T04:43:21.044Z,14.30
2023-05-05T04:45:57.742Z,14.30
2023-05-05T04:48:24.713Z,14.30
2023-05-05T04:50:51.628Z,14.40
2023-05-05T04:53:18.708Z,14.40
2023-05-05T04:55:45.714Z,14.40
2023-05-05T04:58:12.726Z,14.50
2023-05-05T05:00:39.833Z,14.50
2023-05-05T05:03:08.284Z,14.50
2023-05-05T05:05:35.346Z,14.50
2023-05-05T05:08:03.241Z,14.50
2023-05-05T05:10:30.232Z,14.40
2023-05-05T05:12:57.231Z,14.40
2023-05-05T05:15:24.363Z,14.50
2023-05-05T05:17:51.678Z,14.40
2023-05-05T05:20:20.077Z,14.40
2023-05-05T05:22:47.026Z,14.50
2023-05-05T05:25:13.970Z,14.50
2023-05-05T05:27:41.753Z,14.50
2023-05-05T05:30:09.377Z,14.50
2023-05-05T05:32:36.479Z,14.60
2023-05-05T05:35:03.621Z,14.60
2023-05-05T05:37:31.189Z,14.60
2023-05-05T05:39:58.128Z,14.70
2023-05-05T05:42:25.123Z,14.80
2023-05-05T05:44:52.051Z,14.70
2023-05-05T05:47:18.968Z,14.80
2023-05-05T05:49:45.991Z,14.80
2023-05-05T05:52:12.950Z,14.80
2023-05-05T05:54:39.974Z,14.70
2023-05-05T05:57:07.088Z,14.70
2023-05-05T05:59:34.070Z,14.70
2023-05-05T06:02:01.645Z,14.80
2023-05-05T06:04:31.602Z,14.80
2023-05-05T06:06:58.596Z,14.80
2023-05-05T06:09:25.541Z,14.90
2023-05-05T06:11:52.517Z,14.90
2023-05-05T06:14:20.111Z,15.00
2023-05-05T06:16:48.211Z,15.00
2023-05-05T06:19:15.192Z,15.10
2023-05-05T06:21:42.584Z,15.10
2023-05-05T06:24:09.499Z,15.20
2023-05-05T06:26:36.505Z,15.20
2023-05-05T06:29:04.586Z,15.30
2023-05-05T06:31:32.765Z,15.40
2023-05-05T06:33:59.689Z,15.40
2023-05-05T06:36:26.641Z,15.50
2023-05-05T06:38:53.613Z,15.50
2023-05-05T06:41:20.590Z,15.40
2023-05-05T06:43:47.774Z,15.50
2023-05-05T06:46:14.758Z,15.60
2023-05-05T06:48:41.693Z,15.70
2023-05-05T06:51:09.890Z,15.80
2023-05-05T06:53:36.887Z,15.90
2023-05-05T06:56:04.013Z,15.90
2023-05-05T06:58:31.716Z,16.00
2023-05-05T07:00:58.696Z,16.00
2023-05-05T07:03:27.029Z,16.00
2023-05-05T07:05:55.055Z,16.00
2023-05-05T07:08:22.051Z,16.00
2023-05-05T07:10:49.000Z,16.10
2023-05-05T07:13:17.386Z,16.10
2023-05-05T07:15:46.656Z,16.20
2023-05-05T07:18:17.216Z,16.20
2023-05-05T07:20:44.768Z,16.30
2023-05-05T07:23:11.715Z,16.30
2023-05-05T07:25:38.968Z,16.50
2023-05-05T07:28:06.373Z,16.70
2023-05-05T07:30:33.349Z,16.90
2023-05-05T07:33:01.412Z,17.00
2023-05-05T07:35:28.961Z,17.00
2023-05-05T07:37:55.935Z,17.00
2023-05-05T07:40:22.910Z,17.00
2023-05-05T07:42:49.908Z,17.00
2023-05-05T07:45:17.003Z,17.10
2023-05-05T07:47:43.957Z,17.20
2023-05-05T07:50:11.437Z,17.20
2023-05-05T07:52:48.463Z,17.30
2023-05-05T07:55:18.738Z,17.40
2023-05-05T07:57:45.943Z,17.40
2023-05-05T08:00:13.749Z,17.40
2023-05-05T08:02:41.495Z,17.50
2023-05-05T08:05:09.271Z,17.60
2023-05-05T08:07:41.130Z,17.70
2023-05-05T08:10:12.205Z,17.90
2023-05-05T08:12:40.025Z,17.90
2023-05-05T08:15:08.011Z,18.00
2023-05-05T08:17:49.028Z,18.10
2023-05-05T08:20:17.799Z,18.30
2023-05-05T08:22:45.262Z,18.40
2023-05-05T08:25:13.340Z,18.40
2023-05-05T08:27:41.868Z,18.40
2023-05-05T08:30:09.700Z,18.30
2023-05-05T08:32:38.537Z,18.20
2023-05-05T08:35:06.857Z,18.10
2023-05-05T08:37:34.355Z,17.90
2023-05-05T08:40:01.645Z,17.80
2023-05-05T08:42:37.807Z,17.70
2023-05-05T08:45:08.133Z,17.60
2023-05-05T08:47:39.701Z,17.60
2023-05-05T08:50:09.301Z,17.70
2023-05-05T08:52:42.036Z,17.70
2023-05-05T08:55:55.454Z,17.70
2023-05-05T08:58:28.825Z,17.70
2023-05-05T09:00:56.959Z,17.60
2023-05-05T09:03:27.045Z,17.70
2023-05-05T09:05:54.193Z,17.80
2023-05-05T09:08:21.459Z,18.00
2023-05-05T09:10:49.208Z,18.10
2023-05-05T09:13:16.773Z,18.20
2023-05-05T09:15:43.796Z,18.20
2023-05-05T09:18:12.414Z,18.20
2023-05-05T09:20:40.967Z,18.20
2023-05-05T09:23:13.381Z,18.20
2023-05-05T09:25:42.738Z,18.20
2023-05-05T09:28:18.021Z,18.40
2023-05-05T09:30:46.901Z,18.70
2023-05-05T09:33:14.439Z,18.90
2023-05-05T09:35:55.868Z,19.10
2023-05-05T09:38:24.803Z,19.10
2023-05-05T09:40:55.226Z,19.10
2023-05-05T09:43:24.180Z,19.10
2023-05-05T09:45:51.792Z,19.00
2023-05-05T09:48:31.226Z,19.00
2023-05-05T09:50:59.598Z,18.80
2023-05-05T09:53:27.156Z,18.80
2023-05-05T09:55:59.725Z,18.70
2023-05-05T09:58:31.345Z,18.60
2023-05-05T10:00:59.373Z,18.50
2023-05-05T10:03:27.341Z,18.30
2023-05-05T10:05:56.969Z,18.10
2023-05-05T10:08:26.451Z,18.00
2023-05-05T10:10:59.633Z,18.10
2023-05-05T10:13:27.375Z,18.20
2023-05-05T10:15:56.398Z,18.20
2023-05-05T10:18:25.727Z,18.30
2023-05-05T10:20:59.967Z,18.40
2023-05-05T10:23:57.333Z,18.60
2023-05-05T10:26:26.804Z,19.00
2023-05-05T10:29:01.649Z,19.30
2023-05-05T10:31:47.768Z,19.60
2023-05-05T10:34:27.275Z,19.80
2023-05-05T10:36:55.276Z,19.80
2023-05-05T10:39:23.892Z,19.70
2023-05-05T10:41:52.344Z,19.60
2023-05-05T10:44:21.158Z,19.50
2023-05-05T10:46:48.231Z,19.30
2023-05-05T10:49:27.080Z,19.10
2023-05-05T10:52:02.539Z,18.90
2023-05-05T10:54:42.904Z,18.70
2023-05-05T10:57:11.307Z,18.60
2023-05-05T10:59:38.452Z,18.60
2023-05-05T11:02:23.817Z,18.50
2023-05-05T11:05:09.901Z,18.40
2023-05-05T11:07:38.024Z,18.30
2023-05-05T11:10:10.039Z,18.10
2023-05-05T11:12:52.693Z,18.00
2023-05-05T11:15:31.776Z,17.90
2023-05-05T11:18:01.961Z,17.80
2023-05-05T11:20:36.855Z,17.80
2023-05-05T11:23:04.125Z,17.80
2023-05-05T11:25:38.096Z,17.80
2023-05-05T11:28:13.409Z,17.80
2023-05-05T11:31:03.597Z,17.70
2023-05-05T11:33:33.487Z,17.70
2023-05-05T11:36:08.324Z,17.80
2023-05-05T11:38:38.334Z,17.90
2023-05-05T11:41:30.749Z,17.90
2023-05-05T11:44:15.108Z,17.80
2023-05-05T11:47:04.876Z,17.60
2023-05-05T11:49:37.135Z,17.60
2023-05-05T11:52:08.473Z,17.60
2023-05-05T11:54:37.806Z,17.70
2023-05-05T11:57:10.568Z,18.10
2023-05-05T11:59:57.889Z,18.60
2023-05-05T12:02:27.516Z,19.10
2023-05-05T12:04:55.371Z,19.20
2023-05-05T12:07:25.638Z,19.50
2023-05-05T12:09:53.417Z,19.80
2023-05-05T12:12:21.215Z,20.00
2023-05-05T12:14:53.077Z,20.20
2023-05-05T12:17:23.824Z,20.30
2023-05-05T12:19:54.955Z,20.40
2023-05-05T12:22:26.785Z,20.60
2023-05-05T12:25:14.693Z,20.80
2023-05-05T12:27:51.588Z,21.00
2023-05-05T12:30:19.073Z,21.10
2023-05-05T12:32:46.444Z,21.20
2023-05-05T12:35:14.484Z,21.10
2023-05-05T12:37:42.407Z,21.00
2023-05-05T12:40:47.661Z,21.00
2023-05-05T12:43:29.746Z,20.90
2023-05-05T12:46:13.831Z,21.00
2023-05-05T12:48:46.401Z,21.10
2023-05-05T12:51:19.934Z,21.20
2023-05-05T12:53:48.385Z,21.00
2023-05-05T12:56:36.449Z,20.90
2023-05-05T12:59:21.800Z,20.90
2023-05-05T13:01:54.162Z,20.90
2023-05-05T13:04:23.218Z,20.90
2023-05-05T13:07:07.580Z,20.90
2023-05-05T13:09:35.137Z,20.90
2023-05-05T13:12:05.921Z,20.80
2023-05-05T13:14:33.012Z,20.80
2023-05-05T13:16:59.973Z,20.70
2023-05-05T13:19:27.851Z,20.70
2023-05-05T13:21:56.462Z,20.60
2023-05-05T13:24:31.578Z,20.40
2023-05-05T13:27:09.796Z,20.30
2023-05-05T13:29:36.844Z,19.90
2023-05-05T13:32:03.912Z,19.80
2023-05-05T13:34:30.879Z,19.70
2023-05-05T13:36:57.908Z,19.70
2023-05-05T13:39:24.955Z,19.80
2023-05-05T13:41:51.978Z,20.00
2023-05-05T13:44:18.921Z,20.30
2023-05-05T13:46:47.001Z,20.50
2023-05-05T13:49:14.039Z,20.50
2023-05-05T13:51:42.099Z,20.40
2023-05-05T13:54:09.715Z,20.40
2023-05-05T13:56:36.729Z,20.30
2023-05-05T13:59:03.868Z,20.20
2023-05-05T14:01:31.195Z,20.10
2023-05-05T14:03:58.471Z,20.10
2023-05-05T14:06:26.032Z,20.40
2023-05-05T14:08:53.458Z,20.60
2023-05-05T14:11:20.800Z,20.90
2023-05-05T14:13:48.211Z,21.10
2023-05-05T14:16:15.429Z,21.20
2023-05-05T14:18:42.747Z,21.40
2023-05-05T14:21:09.834Z,21.60
2023-05-05T14:23:36.793Z,21.60
2023-05-05T14:26:04.861Z,21.80
2023-05-05T14:28:31.947Z,21.80
2023-05-05T14:30:58.909Z,21.90
2023-05-05T14:33:25.937Z,21.90
2023-05-05T14:35:52.923Z,22.00
2023-05-05T14:38:20.002Z,22.00
2023-05-05T14:40:46.939Z,22.00
2023-05-05T14:43:13.858Z,22.00
2023-05-05T14:45:41.521Z,22.00
2023-05-05T14:48:08.620Z,22.00
2023-05-05T14:50:35.559Z,21.90
2023-05-05T14:53:02.553Z,21.90
2023-05-05T14:55:29.595Z,21.80
2023-05-05T14:57:56.586Z,21.80
2023-05-05T15:00:23.640Z,21.70
2023-05-05T15:02:50.699Z,21.60
2023-05-05T15:05:18.160Z,21.50
2023-05-05T15:07:45.028Z,21.50
2023-05-05T15:10:12.216Z,21.40
2023-05-05T15:12:39.399Z,21.40
2023-05-05T15:15:08.768Z,21.40
2023-05-05T15:17:37.694Z,21.40
2023-05-05T15:20:08.732Z,21.50
2023-05-05T15:22:36.607Z,21.40
2023-05-05T15:25:03.626Z,21.40
2023-05-05T15:27:31.766Z,21.40
2023-05-05T15:29:58.782Z,21.50
2023-05-05T15:32:25.821Z,21.60
2023-05-05T15:34:52.880Z,21.60
2023-05-05T15:37:19.825Z,21.60
2023-05-05T15:39:46.824Z,21.60
2023-05-05T15:42:13.734Z,21.60
2023-05-05T15:44:40.769Z,21.70
2023-05-05T15:47:07.970Z,21.60
2023-05-05T15:49:34.934Z,21.80
2023-05-05T15:52:02.294Z,21.80
2023-05-05T15:54:29.308Z,21.80
2023-05-05T15:56:56.482Z,21.90
2023-05-05T15:59:23.517Z,22.00
2023-05-05T16:01:50.465Z,22.00
2023-05-05T16:04:17.425Z,22.00
2023-05-05T16:06:44.457Z,22.00
2023-05-05T16:09:11.407Z,22.00
2023-05-05T16:11:38.482Z,22.00
2023-05-05T16:14:05.747Z,22.00
2023-05-05T16:16:32.871Z,21.80
2023-05-05T16:19:00.057Z,21.60
2023-05-05T16:21:27.674Z,21.50
2023-05-05T16:23:54.766Z,21.40
2023-05-05T16:26:21.782Z,21.30
2023-05-05T16:28:48.683Z,21.30
2023-05-05T16:31:16.047Z,21.20
2023-05-05T16:33:43.857Z,21.20
2023-05-05T16:36:12.999Z,21.20
2023-05-05T16:38:44.141Z,21.20
2023-05-05T16:41:11.496Z,21.20
2023-05-05T16:43:38.622Z,21.20
2023-05-05T16:46:06.594Z,21.10
2023-05-05T16:48:33.608Z,21.00
2023-05-05T16:51:00.567Z,20.80
2023-05-05T16:53:27.525Z,20.80
2023-05-05T16:55:54.797Z,20.70
2023-05-05T16:58:24.838Z,20.70
2023-05-05T17:00:52.435Z,20.70
2023-05-05T17:03:20.346Z,20.70
2023-05-05T17:05:50.031Z,20.60
2023-05-05T17:08:17.600Z,20.60
2023-05-05T17:10:45.641Z,20.50
2023-05-05T17:13:13.947Z,20.50
2023-05-05T17:15:41.779Z,20.40
2023-05-05T17:18:08.968Z,20.40
2023-05-05T17:20:36.499Z,20.30
2023-05-05T17:23:03.584Z,20.20
2023-05-05T17:25:30.841Z,20.20
2023-05-05T17:27:57.965Z,20.10
2023-05-05T17:30:24.982Z,19.90
2023-05-05T17:32:52.068Z,19.80
2023-05-05T17:35:19.026Z,19.70
2023-05-05T17:37:46.004Z,19.50
2023-05-05T17:40:13.131Z,19.40
2023-05-05T17:42:40.716Z,19.30
2023-05-05T17:45:08.608Z,19.20
2023-05-05T17:47:36.222Z,19.10
2023-05-05T17:50:03.524Z,19.10
2023-05-05T17:52:30.443Z,19.00
2023-05-05T17:54:57.394Z,19.00
2023-05-05T17:57:24.335Z,18.90
2023-05-05T17:59:53.451Z,18.90
2023-05-05T18:02:21.435Z,18.80
2023-05-05T18:04:48.433Z,18.70
2023-05-05T18:07:15.778Z,18.60
2023-05-05T18:09:42.821Z,18.50
2023-05-05T18:12:09.851Z,18.50
2023-05-05T18:14:36.869Z,18.30
2023-05-05T18:17:04.957Z,18.10
2023-05-05T18:19:32.358Z,18.00
2023-05-05T18:21:59.394Z,17.90
2023-05-05T18:24:27.612Z,17.80
2023-05-05T18:26:54.550Z,17.70
2023-05-05T18:29:22.400Z,17.60
2023-05-05T18:31:53.151Z,17.50
2023-05-05T18:34:20.788Z,17.40
2023-05-05T18:36:50.077Z,17.40
2023-05-05T18:39:17.961Z,17.30
2023-05-05T18:41:44.997Z,17.30
2023-05-05T18:44:11.928Z,17.30
2023-05-05T18:46:39.006Z,17.30
2023-05-05T18:49:06.356Z,17.30
2023-05-05T18:51:33.272Z,17.20
2023-05-05T18:54:01.052Z,17.20
2023-05-05T18:56:28.071Z,17.10
2023-05-05T18:58:55.016Z,17.10
2023-05-05T19:01:22.233Z,17.10
2023-05-05T19:03:49.951Z,17.00
2023-05-05T19:06:17.991Z,17.00
2023-05-05T19:08:45.838Z,16.90
2023-05-05T19:11:14.800Z,16.80
2023-05-05T19:13:42.474Z,16.70
2023-05-05T19:16:11.265Z,16.60
2023-05-05T19:18:38.825Z,16.60
2023-05-05T19:21:06.108Z,16.50
2023-05-05T19:23:33.558Z,16.40
2023-05-05T19:26:00.747Z,16.40
2023-05-05T19:28:27.739Z,16.30
2023-05-05T19:30:54.828Z,16.30
2023-05-05T19:33:22.226Z,16.20
2023-05-05T19:35:49.376Z,16.20
2023-05-05T19:38:16.428Z,16.10
2023-05-05T19:40:43.409Z,16.10
2023-05-05T19:43:10.471Z,16.10
2023-05-05T19:45:37.628Z,16.00
2023-05-05T19:48:05.011Z,16.00
2023-05-05T19:50:32.038Z,16.00
2023-05-05T19:52:59.085Z,16.00
2023-05-05T19:55:26.041Z,15.90
2023-05-05T19:57:53.160Z,15.90
2023-05-05T20:00:20.470Z,15.80
2023-05-05T20:02:49.168Z,15.80
2023-05-05T20:05:17.468Z,15.70
2023-05-05T20:07:46.937Z,15.60
2023-05-05T20:10:14.348Z,15.60
2023-05-05T20:12:47.889Z,15.60
2023-05-05T20:15:18.806Z,15.50
2023-05-05T20:17:49.857Z,15.50
2023-05-05T20:20:21.944Z,15.40
2023-05-05T20:22:49.717Z,15.40
2023-05-05T20:25:17.333Z,15.30
2023-05-05T20:27:45.873Z,15.30
2023-05-05T20:30:13.308Z,15.20
2023-05-05T20:32:40.863Z,15.20
2023-05-05T20:35:08.578Z,15.10
2023-05-05T20:37:35.556Z,15.10
2023-05-05T20:40:02.596Z,15.10
2023-05-05T20:42:29.893Z,15.00
2023-05-05T20:44:57.109Z,15.00
2023-05-05T20:47:24.454Z,15.00
2023-05-05T20:49:52.515Z,14.90
2023-05-05T20:52:19.871Z,14.90
2023-05-05T20:54:47.857Z,14.80
2023-05-05T20:57:14.810Z,14.80
2023-05-05T20:59:42.763Z,14.80
2023-05-05T21:02:09.763Z,14.80
2023-05-05T21:04:36.674Z,14.70
2023-05-05T21:07:03.657Z,14.70
2023-05-05T21:09:31.557Z,14.70
2023-05-05T21:11:58.611Z,14.70
2023-05-05T21:14:25.623Z,14.70
2023-05-05T21:16:52.729Z,14.60
2023-05-05T21:19:19.650Z,14.60
2023-05-05T21:21:46.557Z,14.70
2023-05-05T21:24:13.611Z,14.70
2023-05-05T21:26:44.479Z,14.70
2023-05-05T21:29:12.090Z,14.60
2023-05-05T21:31:39.152Z,14.70
2023-05-05T21:34:06.095Z,14.60
2023-05-05T21:36:33.986Z,14.60
2023-05-05T21:39:01.243Z,14.60
2023-05-05T21:41:28.384Z,14.60
2023-05-05T21:43:55.761Z,14.60
2023-05-05T21:46:22.893Z,14.60
2023-05-05T21:48:50.342Z,14.70
2023-05-05T21:51:17.649Z,14.70
2023-05-05T21:53:44.677Z,14.80
2023-05-05T21:56:11.966Z,14.80
2023-05-05T21:58:39.037Z,14.80
2023-05-05T22:01:06.076Z,14.80
2023-05-05T22:03:34.653Z,14.80
2023-05-05T22:06:01.822Z,14.80
2023-05-05T22:08:28.812Z,14.80
2023-05-05T22:10:55.757Z,14.80
2023-05-05T22:13:22.749Z,14.80
2023-05-05T22:15:49.842Z,14.80
2023-05-05T22:18:16.870Z,14.80
2023-05-05T22:20:44.066Z,14.80
2023-05-05T22:23:11.268Z,14.80
2023-05-05T22:25:38.241Z,14.80
2023-05-05T22:28:05.692Z,14.80
2023-05-05T22:30:32.833Z,14.80
2023-05-05T22:32:59.803Z,14.80
2023-05-05T22:35:26.973Z,14.80
2023-05-05T22:37:54.057Z,14.80
2023-05-05T22:40:21.327Z,14.80
2023-05-05T22:42:48.361Z,14.90
2023-05-05T22:45:15.436Z,14.90
2023-05-05T22:47:42.507Z,14.90
2023-05-05T22:50:09.838Z,14.90
2023-05-05T22:52:36.805Z,14.90
2023-05-05T22:55:04.061Z,14.90
2023-05-05T22:57:31.134Z,14.90
2023-05-05T22:59:58.070Z,14.90
2023-05-05T23:02:26.710Z,14.90
2023-05-05T23:04:56.881Z,14.90
2023-05-05T23:07:27.012Z,14.90
2023-05-05T23:09:57.048Z,14.80
2023-05-05T23:12:23.996Z,14.80
2023-05-05T23:14:52.998Z,14.80
2023-05-05T23:17:22.553Z,14.80
2023-05-05T23:19:50.797Z,14.80
2023-05-05T23:22:17.869Z,14.70
2023-05-05T23:24:46.848Z,14.70
2023-05-05T23:27:16.860Z,14.70
2023-05-05T23:29:43.776Z,14.70
2023-05-05T23:32:11.780Z,14.60
2023-05-05T23:34:41.994Z,14.60
2023-05-05T23:37:10.008Z,14.60
2023-05-05T23:39:38.024Z,14.50
2023-05-05T23:42:06.332Z,14.40
2023-05-05T23:44:34.436Z,14.40
2023-05-05T23:47:01.400Z,14.30
2023-05-05T23:49:28.450Z,14.30
2023-05-05T23:51:58.581Z,14.20
2023-05-05T23:54:26.236Z,14.20
2023-05-05T23:56:53.315Z,14.10
2023-05-05T23:59:23.385Z,14.00
